sensor_id;sensor_type;location;lat;lon;timestamp;P1;durP1;ratioP1;P2;durP2;ratioP2
17967;SDS011;9109;48.050;11.696;2023-04-15T03:48:02;7.50;;;3.50;;
17967;SDS011;9109;48.050;11.696;2023-04-15T03:51:05;15.83;;;4.00;;
17967;SDS011;9109;48.050;11.696;2023-04-15T03:54:07;5.70;;;3.57;;
17967;SDS011;9109;48.050;11.696;2023-04-15T03:57:09;14.13;;;3.27;;
17967;SDS011;9109;48.050;11.696;2023-04-15T04:00:11;8.20;;;3.20;;
17967;SDS011;9109;48.050;11.696;2023-04-15T04:03:15;10.63;;;3.17;;
17967;SDS011;9109;48.050;11.696;2023-04-15T04:06:17;8.33;;;3.00;;
17967;SDS011;9109;48.050;11.696;2023-04-15T04:09:19;7.83;;;3.10;;
17967;SDS011;9109;48.050;11.696;2023-04-15T04:12:21;9.13;;;3.33;;
17967;SDS011;9109;48.050;11.696;2023-04-15T04:15:22;8.80;;;3.10;;
17967;SDS011;9109;48.050;11.696;2023-04-15T04:18:25;3.93;;;2.93;;
17967;SDS011;9109;48.050;11.696;2023-04-15T04:21:27;8.73;;;3.30;;
17967;SDS011;9109;48.050;11.696;2023-04-15T04:24:29;7.93;;;2.90;;
17967;SDS011;9109;48.050;11.696;2023-04-15T04:27:31;7.53;;;3.07;;
17967;SDS011;9109;48.050;11.696;2023-04-15T04:30:34;6.67;;;2.80;;
17967;SDS011;9109;48.050;11.696;2023-04-15T04:33:37;8.23;;;3.10;;
17967;SDS011;9109;48.050;11.696;2023-04-15T04:36:39;8.70;;;3.07;;
17967;SDS011;9109;48.050;11.696;2023-04-15T04:39:41;7.50;;;2.70;;
17967;SDS011;9109;48.050;11.696;2023-04-15T04:42:43;7.73;;;2.80;;
17967;SDS011;9109;48.050;11.696;2023-04-15T04:45:45;7.63;;;2.73;;
17967;SDS011;9109;48.050;11.696;2023-04-15T04:48:48;6.57;;;2.80;;
17967;SDS011;9109;48.050;11.696;2023-04-15T04:51:50;6.83;;;2.87;;
17967;SDS011;9109;48.050;11.696;2023-04-15T04:54:52;9.40;;;3.00;;
17967;SDS011;9109;48.050;11.696;2023-04-15T04:57:54;10.47;;;2.60;;
17967;SDS011;9109;48.050;11.696;2023-04-15T05:00:56;8.43;;;3.07;;
17967;SDS011;9109;48.050;11.696;2023-04-15T05:04:00;5.77;;;2.63;;
17967;SDS011;9109;48.050;11.696;2023-04-15T05:07:03;6.77;;;2.80;;
17967;SDS011;9109;48.050;11.696;2023-04-15T05:10:06;5.07;;;2.43;;
17967;SDS011;9109;48.050;11.696;2023-04-15T05:13:09;3.70;;;2.37;;
17967;SDS011;9109;48.050;11.696;2023-04-15T05:16:11;11.23;;;2.43;;
17967;SDS011;9109;48.050;11.696;2023-04-15T05:19:14;5.33;;;2.60;;
17967;SDS011;9109;48.050;11.696;2023-04-15T05:22:16;9.53;;;2.90;;
17967;SDS011;9109;48.050;11.696;2023-04-15T05:25:18;6.03;;;2.87;;
17967;SDS011;9109;48.050;11.696;2023-04-15T05:28:20;5.97;;;2.73;;
17967;SDS011;9109;48.050;11.696;2023-04-15T05:31:22;6.43;;;2.40;;
17967;SDS011;9109;48.050;11.696;2023-04-15T05:34:25;5.23;;;2.70;;
17967;SDS011;9109;48.050;11.696;2023-04-15T05:37:27;11.70;;;2.73;;
17967;SDS011;9109;48.050;11.696;2023-04-15T05:40:29;4.70;;;2.47;;
17967;SDS011;9109;48.050;11.696;2023-04-15T05:43:31;7.43;;;2.40;;
17967;SDS011;9109;48.050;11.696;2023-04-15T05:46:33;7.07;;;2.40;;
17967;SDS011;9109;48.050;11.696;2023-04-15T05:49:36;5.70;;;2.00;;
17967;SDS011;9109;48.050;11.696;2023-04-15T05:52:38;7.30;;;2.47;;
17967;SDS011;9109;48.050;11.696;2023-04-15T05:55:40;8.97;;;2.93;;
17967;SDS011;9109;48.050;11.696;2023-04-15T05:58:42;7.40;;;2.83;;
17967;SDS011;9109;48.050;11.696;2023-04-15T06:01:44;4.43;;;2.47;;
17967;SDS011;9109;48.050;11.696;2023-04-15T06:04:47;6.73;;;2.13;;
17967;SDS011;9109;48.050;11.696;2023-04-15T06:07:49;8.37;;;2.57;;
17967;SDS011;9109;48.050;11.696;2023-04-15T06:10:51;9.43;;;2.40;;
17967;SDS011;9109;48.050;11.696;2023-04-15T06:13:53;4.57;;;2.13;;
17967;SDS011;9109;48.050;11.696;2023-04-15T06:16:55;15.23;;;2.40;;
17967;SDS011;9109;48.050;11.696;2023-04-15T06:19:58;5.90;;;2.13;;
17967;SDS011;9109;48.050;11.696;2023-04-15T06:23:00;6.30;;;2.17;;
17967;SDS011;9109;48.050;11.696;2023-04-15T06:26:02;7.63;;;2.40;;
17967;SDS011;9109;48.050;11.696;2023-04-15T06:29:04;8.10;;;2.00;;
17967;SDS011;9109;48.050;11.696;2023-04-15T06:32:06;6.47;;;2.50;;
17967;SDS011;9109;48.050;11.696;2023-04-15T06:35:09;6.67;;;2.23;;
17967;SDS011;9109;48.050;11.696;2023-04-15T06:38:11;9.60;;;2.30;;
17967;SDS011;9109;48.050;11.696;2023-04-15T06:41:13;7.20;;;2.10;;
17967;SDS011;9109;48.050;11.696;2023-04-15T06:44:15;11.90;;;2.37;;
17967;SDS011;9109;48.050;11.696;2023-04-15T06:47:17;9.73;;;1.97;;
17967;SDS011;9109;48.050;11.696;2023-04-15T06:50:20;8.37;;;2.10;;
17967;SDS011;9109;48.050;11.696;2023-04-15T06:53:23;8.93;;;2.00;;
17967;SDS011;9109;48.050;11.696;2023-04-15T06:56:25;5.70;;;2.00;;
17967;SDS011;9109;48.050;11.696;2023-04-15T06:59:27;13.50;;;2.07;;
17967;SDS011;9109;48.050;11.696;2023-04-15T07:02:29;7.43;;;2.33;;
17967;SDS011;9109;48.050;11.696;2023-04-15T07:05:32;10.43;;;2.40;;
17967;SDS011;9109;48.050;11.696;2023-04-15T07:08:34;8.97;;;2.00;;
17967;SDS011;9109;48.050;11.696;2023-04-15T07:11:36;5.17;;;2.03;;
17967;SDS011;9109;48.050;11.696;2023-04-15T07:14:38;3.47;;;2.10;;
17967;SDS011;9109;48.050;11.696;2023-04-15T07:17:40;7.93;;;1.97;;
17967;SDS011;9109;48.050;11.696;2023-04-15T07:20:44;5.03;;;2.10;;
17967;SDS011;9109;48.050;11.696;2023-04-15T07:23:46;3.17;;;1.80;;
17967;SDS011;9109;48.050;11.696;2023-04-15T07:26:47;10.73;;;2.40;;
17967;SDS011;9109;48.050;11.696;2023-04-15T07:29:50;7.30;;;1.90;;
17967;SDS011;9109;48.050;11.696;2023-04-15T07:32:52;5.67;;;1.63;;
17967;SDS011;9109;48.050;11.696;2023-04-15T07:35:55;5.97;;;1.70;;
17967;SDS011;9109;48.050;11.696;2023-04-15T07:38:57;6.67;;;2.00;;
17967;SDS011;9109;48.050;11.696;2023-04-15T07:42:01;5.60;;;2.13;;
17967;SDS011;9109;48.050;11.696;2023-04-15T07:45:03;4.70;;;1.60;;
17967;SDS011;9109;48.050;11.696;2023-04-15T07:48:05;4.33;;;1.60;;
17967;SDS011;9109;48.050;11.696;2023-04-15T07:51:09;3.77;;;1.53;;
17967;SDS011;9109;48.050;11.696;2023-04-15T07:54:12;27.30;;;1.87;;
17967;SDS011;9109;48.050;11.696;2023-04-15T07:57:13;4.67;;;1.60;;
17967;SDS011;9109;48.050;11.696;2023-04-15T08:00:16;3.30;;;1.83;;
17967;SDS011;9109;48.050;11.696;2023-04-15T08:03:18;6.97;;;1.90;;
17967;SDS011;9109;48.050;11.696;2023-04-15T08:06:27;6.77;;;1.60;;
17967;SDS011;9109;48.050;11.696;2023-04-15T08:09:29;8.67;;;1.83;;
17967;SDS011;9109;48.050;11.696;2023-04-15T08:12:31;5.57;;;1.60;;
17967;SDS011;9109;48.050;11.696;2023-04-15T08:15:33;7.03;;;1.53;;
17967;SDS011;9109;48.050;11.696;2023-04-15T08:18:37;7.23;;;1.73;;
17967;SDS011;9109;48.050;11.696;2023-04-15T08:21:42;7.13;;;1.50;;
17967;SDS011;9109;48.050;11.696;2023-04-15T08:24:44;4.93;;;2.10;;
17967;SDS011;9109;48.050;11.696;2023-04-15T08:27:47;3.40;;;1.70;;
17967;SDS011;9109;48.050;11.696;2023-04-15T08:30:49;9.43;;;2.07;;
17967;SDS011;9109;48.050;11.696;2023-04-15T08:33:52;5.83;;;2.23;;
17967;SDS011;9109;48.050;11.696;2023-04-15T08:36:57;7.23;;;2.30;;
17967;SDS011;9109;48.050;11.696;2023-04-15T08:39:59;7.30;;;2.30;;
17967;SDS011;9109;48.050;11.696;2023-04-15T08:43:01;3.40;;;1.77;;
17967;SDS011;9109;48.050;11.696;2023-04-15T08:46:05;10.43;;;2.30;;
17967;SDS011;9109;48.050;11.696;2023-04-15T08:49:10;4.83;;;2.10;;
17967;SDS011;9109;48.050;11.696;2023-04-15T08:52:14;3.03;;;1.67;;
17967;SDS011;9109;48.050;11.696;2023-04-15T08:55:16;7.17;;;2.07;;
17967;SDS011;9109;48.050;11.696;2023-04-15T08:58:21;5.63;;;2.37;;
17967;SDS011;9109;48.050;11.696;2023-04-15T09:01:24;6.73;;;2.73;;
17967;SDS011;9109;48.050;11.696;2023-04-15T09:04:26;7.83;;;2.30;;
17967;SDS011;9109;48.050;11.696;2023-04-15T09:07:30;5.93;;;2.30;;
17967;SDS011;9109;48.050;11.696;2023-04-15T09:10:36;5.80;;;2.57;;
17967;SDS011;9109;48.050;11.696;2023-04-15T09:13:38;5.67;;;2.27;;
17967;SDS011;9109;48.050;11.696;2023-04-15T09:20:10;3.07;;;2.10;;
17967;SDS011;9109;48.050;11.696;2023-04-15T09:23:15;5.47;;;1.93;;
17967;SDS011;9109;48.050;11.696;2023-04-15T09:26:17;8.07;;;3.00;;
17967;SDS011;9109;48.050;11.696;2023-04-15T09:29:19;3.77;;;2.40;;
17967;SDS011;9109;48.050;11.696;2023-04-15T09:32:24;10.37;;;2.57;;
17967;SDS011;9109;48.050;11.696;2023-04-15T09:35:26;8.17;;;2.53;;
17967;SDS011;9109;48.050;11.696;2023-04-15T09:38:30;8.00;;;2.27;;
17967;SDS011;9109;48.050;11.696;2023-04-15T09:41:32;9.20;;;2.70;;
17967;SDS011;9109;48.050;11.696;2023-04-15T09:44:34;4.90;;;3.03;;
17967;SDS011;9109;48.050;11.696;2023-04-15T09:47:36;3.77;;;2.13;;
17967;SDS011;9109;48.050;11.696;2023-04-15T09:50:39;6.37;;;2.37;;
17967;SDS011;9109;48.050;11.696;2023-04-15T09:53:43;5.40;;;2.43;;
17967;SDS011;9109;48.050;11.696;2023-04-15T09:56:45;6.83;;;3.30;;
17967;SDS011;9109;48.050;11.696;2023-04-15T09:59:47;7.23;;;2.60;;
17967;SDS011;9109;48.050;11.696;2023-04-15T10:02:49;5.67;;;2.87;;
17967;SDS011;9109;48.050;11.696;2023-04-15T10:05:52;7.83;;;2.90;;
17967;SDS011;9109;48.050;11.696;2023-04-15T10:08:57;9.20;;;3.27;;
17967;SDS011;9109;48.050;11.696;2023-04-15T10:12:00;6.70;;;2.73;;
17967;SDS011;9109;48.050;11.696;2023-04-15T10:15:04;12.53;;;3.20;;
17967;SDS011;9109;48.050;11.696;2023-04-15T10:18:07;5.60;;;2.97;;
17967;SDS011;9109;48.050;11.696;2023-04-15T10:21:09;6.03;;;2.73;;
17967;SDS011;9109;48.050;11.696;2023-04-15T10:24:14;10.37;;;3.60;;
17967;SDS011;9109;48.050;11.696;2023-04-15T10:27:16;6.67;;;2.63;;
17967;SDS011;9109;48.050;11.696;2023-04-15T10:30:19;6.73;;;2.93;;
17967;SDS011;9109;48.050;11.696;2023-04-15T10:33:22;6.53;;;3.07;;
17967;SDS011;9109;48.050;11.696;2023-04-15T10:36:24;10.97;;;3.63;;
17967;SDS011;9109;48.050;11.696;2023-04-15T10:39:41;6.70;;;3.33;;
17967;SDS011;9109;48.050;11.696;2023-04-15T10:42:44;7.57;;;3.67;;
17967;SDS011;9109;48.050;11.696;2023-04-15T10:45:46;4.93;;;3.00;;
17967;SDS011;9109;48.050;11.696;2023-04-15T10:48:49;14.67;;;3.80;;
17967;SDS011;9109;48.050;11.696;2023-04-15T10:51:52;8.40;;;3.30;;
17967;SDS011;9109;48.050;11.696;2023-04-15T10:55:11;7.20;;;3.40;;
17967;SDS011;9109;48.050;11.696;2023-04-15T10:58:14;5.73;;;3.23;;
17967;SDS011;9109;48.050;11.696;2023-04-15T11:01:18;6.70;;;3.50;;
17967;SDS011;9109;48.050;11.696;2023-04-15T11:07:53;6.80;;;3.50;;
17967;SDS011;9109;48.050;11.696;2023-04-15T11:10:57;11.07;;;4.00;;
17967;SDS011;9109;48.050;11.696;2023-04-15T11:14:01;8.63;;;3.87;;
17967;SDS011;9109;48.050;11.696;2023-04-15T11:17:03;9.53;;;4.17;;
17967;SDS011;9109;48.050;11.696;2023-04-15T11:20:06;9.87;;;4.20;;
17967;SDS011;9109;48.050;11.696;2023-04-15T11:23:08;9.57;;;3.73;;
17967;SDS011;9109;48.050;11.696;2023-04-15T11:26:12;7.63;;;4.00;;
17967;SDS011;9109;48.050;11.696;2023-04-15T11:29:16;12.00;;;4.20;;
17967;SDS011;9109;48.050;11.696;2023-04-15T11:32:18;7.20;;;3.60;;
17967;SDS011;9109;48.050;11.696;2023-04-15T11:35:21;9.03;;;4.20;;
17967;SDS011;9109;48.050;11.696;2023-04-15T11:38:23;9.37;;;3.87;;
17967;SDS011;9109;48.050;11.696;2023-04-15T11:41:27;8.70;;;3.93;;
17967;SDS011;9109;48.050;11.696;2023-04-15T11:44:29;10.80;;;4.30;;
17967;SDS011;9109;48.050;11.696;2023-04-15T11:47:30;6.37;;;3.50;;
17967;SDS011;9109;48.050;11.696;2023-04-15T11:50:32;9.07;;;5.10;;
17967;SDS011;9109;48.050;11.696;2023-04-15T11:53:36;10.67;;;4.40;;
17967;SDS011;9109;48.050;11.696;2023-04-15T11:56:41;12.10;;;3.63;;
17967;SDS011;9109;48.050;11.696;2023-04-15T11:59:53;8.53;;;3.90;;
17967;SDS011;9109;48.050;11.696;2023-04-15T12:03:10;10.03;;;4.53;;
17967;SDS011;9109;48.050;11.696;2023-04-15T12:06:14;8.50;;;4.20;;
17967;SDS011;9109;48.050;11.696;2023-04-15T12:09:18;9.73;;;3.90;;
17967;SDS011;9109;48.050;11.696;2023-04-15T12:12:26;14.73;;;4.73;;
17967;SDS011;9109;48.050;11.696;2023-04-15T12:15:29;6.70;;;3.77;;
17967;SDS011;9109;48.050;11.696;2023-04-15T12:18:31;7.37;;;3.50;;
17967;SDS011;9109;48.050;11.696;2023-04-15T12:21:34;13.70;;;3.83;;
17967;SDS011;9109;48.050;11.696;2023-04-15T12:24:37;7.90;;;4.63;;
17967;SDS011;9109;48.050;11.696;2023-04-15T12:27:41;8.03;;;4.67;;
17967;SDS011;9109;48.050;11.696;2023-04-15T12:30:52;8.33;;;4.10;;
17967;SDS011;9109;48.050;11.696;2023-04-15T12:33:56;10.37;;;4.10;;
17967;SDS011;9109;48.050;11.696;2023-04-15T12:37:03;8.33;;;4.30;;
17967;SDS011;9109;48.050;11.696;2023-04-15T12:40:07;6.67;;;4.10;;
17967;SDS011;9109;48.050;11.696;2023-04-15T12:43:11;9.40;;;3.77;;
17967;SDS011;9109;48.050;11.696;2023-04-15T12:46:13;13.43;;;4.47;;
17967;SDS011;9109;48.050;11.696;2023-04-15T12:49:15;6.70;;;3.90;;
17967;SDS011;9109;48.050;11.696;2023-04-15T12:52:19;9.27;;;4.20;;
17967;SDS011;9109;48.050;11.696;2023-04-15T12:55:22;11.33;;;4.07;;
17967;SDS011;9109;48.050;11.696;2023-04-15T12:58:25;11.70;;;4.03;;
17967;SDS011;9109;48.050;11.696;2023-04-15T13:01:27;9.50;;;3.93;;
17967;SDS011;9109;48.050;11.696;2023-04-15T13:04:29;8.73;;;3.60;;
17967;SDS011;9109;48.050;11.696;2023-04-15T13:07:31;7.23;;;3.97;;
17967;SDS011;9109;48.050;11.696;2023-04-15T13:10:34;9.57;;;3.73;;
17967;SDS011;9109;48.050;11.696;2023-04-15T13:13:38;7.70;;;3.63;;
17967;SDS011;9109;48.050;11.696;2023-04-15T13:16:40;5.77;;;3.03;;
17967;SDS011;9109;48.050;11.696;2023-04-15T13:19:42;6.93;;;3.23;;
17967;SDS011;9109;48.050;11.696;2023-04-15T13:22:43;7.97;;;3.43;;
17967;SDS011;9109;48.050;11.696;2023-04-15T13:25:46;6.30;;;3.23;;
17967;SDS011;9109;48.050;11.696;2023-04-15T13:28:49;9.70;;;2.83;;
17967;SDS011;9109;48.050;11.696;2023-04-15T13:31:51;5.53;;;2.97;;
17967;SDS011;9109;48.050;11.696;2023-04-15T13:34:53;7.03;;;2.83;;
17967;SDS011;9109;48.050;11.696;2023-04-15T13:37:55;5.37;;;2.73;;
17967;SDS011;9109;48.050;11.696;2023-04-15T13:40:57;15.30;;;3.00;;
17967;SDS011;9109;48.050;11.696;2023-04-15T13:44:00;4.80;;;2.40;;
17967;SDS011;9109;48.050;11.696;2023-04-15T13:47:02;5.73;;;2.70;;
17967;SDS011;9109;48.050;11.696;2023-04-15T13:50:04;7.00;;;2.57;;
17967;SDS011;9109;48.050;11.696;2023-04-15T13:53:07;12.57;;;3.53;;
17967;SDS011;9109;48.050;11.696;2023-04-15T13:56:09;8.27;;;3.40;;
17967;SDS011;9109;48.050;11.696;2023-04-15T13:59:12;7.50;;;2.90;;
17967;SDS011;9109;48.050;11.696;2023-04-15T14:02:14;9.77;;;4.40;;
17967;SDS011;9109;48.050;11.696;2023-04-15T14:05:16;10.00;;;3.03;;
17967;SDS011;9109;48.050;11.696;2023-04-15T14:08:18;10.37;;;3.33;;
17967;SDS011;9109;48.050;11.696;2023-04-15T14:11:20;6.87;;;3.43;;
17967;SDS011;9109;48.050;11.696;2023-04-15T14:14:23;11.03;;;3.50;;
17967;SDS011;9109;48.050;11.696;2023-04-15T14:17:25;6.03;;;3.70;;
17967;SDS011;9109;48.050;11.696;2023-04-15T14:20:27;10.17;;;4.00;;
17967;SDS011;9109;48.050;11.696;2023-04-15T14:23:29;8.63;;;3.80;;
17967;SDS011;9109;48.050;11.696;2023-04-15T14:26:31;7.30;;;3.20;;
17967;SDS011;9109;48.050;11.696;2023-04-15T14:29:34;6.10;;;3.17;;
17967;SDS011;9109;48.050;11.696;2023-04-15T14:32:36;7.20;;;3.30;;
17967;SDS011;9109;48.050;11.696;2023-04-15T14:35:38;10.13;;;3.43;;
17967;SDS011;9109;48.050;11.696;2023-04-15T14:38:40;5.57;;;3.10;;
17967;SDS011;9109;48.050;11.696;2023-04-15T14:41:42;4.33;;;2.93;;
17967;SDS011;9109;48.050;11.696;2023-04-15T14:44:45;6.93;;;2.80;;
17967;SDS011;9109;48.050;11.696;2023-04-15T14:47:47;6.63;;;3.00;;
17967;SDS011;9109;48.050;11.696;2023-04-15T14:50:49;5.20;;;3.10;;
17967;SDS011;9109;48.050;11.696;2023-04-15T14:53:51;7.17;;;3.17;;
17967;SDS011;9109;48.050;11.696;2023-04-15T14:56:53;5.93;;;2.80;;
17967;SDS011;9109;48.050;11.696;2023-04-15T15:00:00;7.00;;;2.40;;
17967;SDS011;9109;48.050;11.696;2023-04-15T15:03:02;9.40;;;3.03;;
17967;SDS011;9109;48.050;11.696;2023-04-15T15:06:05;6.40;;;2.90;;
17967;SDS011;9109;48.050;11.696;2023-04-15T15:09:10;5.27;;;2.13;;
17967;SDS011;9109;48.050;11.696;2023-04-15T15:12:12;6.40;;;2.87;;
17967;SDS011;9109;48.050;11.696;2023-04-15T15:15:15;6.53;;;3.30;;
17967;SDS011;9109;48.050;11.696;2023-04-15T15:18:17;11.20;;;3.17;;
17967;SDS011;9109;48.050;11.696;2023-04-15T15:21:19;6.13;;;3.07;;
17967;SDS011;9109;48.050;11.696;2023-04-15T15:24:21;8.30;;;3.00;;
17967;SDS011;9109;48.050;11.696;2023-04-15T15:27:23;6.27;;;3.10;;
17967;SDS011;9109;48.050;11.696;2023-04-15T15:30:27;7.03;;;3.13;;
17967;SDS011;9109;48.050;11.696;2023-04-15T15:33:29;6.37;;;3.43;;
17967;SDS011;9109;48.050;11.696;2023-04-15T15:36:32;10.30;;;4.13;;
17967;SDS011;9109;48.050;11.696;2023-04-15T15:39:33;13.47;;;4.30;;
17967;SDS011;9109;48.050;11.696;2023-04-15T15:42:36;12.57;;;4.00;;
17967;SDS011;9109;48.050;11.696;2023-04-15T15:45:39;10.00;;;4.17;;
17967;SDS011;9109;48.050;11.696;2023-04-15T15:48:41;6.73;;;4.23;;
17967;SDS011;9109;48.050;11.696;2023-04-15T15:51:43;9.37;;;3.90;;
17967;SDS011;9109;48.050;11.696;2023-04-15T15:54:45;8.17;;;4.10;;
17967;SDS011;9109;48.050;11.696;2023-04-15T15:57:47;9.47;;;3.97;;
17967;SDS011;9109;48.050;11.696;2023-04-15T16:00:51;5.53;;;3.37;;
17967;SDS011;9109;48.050;11.696;2023-04-15T16:03:53;7.33;;;3.43;;
17967;SDS011;9109;48.050;11.696;2023-04-15T16:06:55;8.37;;;3.80;;
17967;SDS011;9109;48.050;11.696;2023-04-15T16:09:57;9.67;;;3.50;;
17967;SDS011;9109;48.050;11.696;2023-04-15T16:13:01;8.23;;;3.30;;
17967;SDS011;9109;48.050;11.696;2023-04-15T16:16:04;9.57;;;4.00;;
17967;SDS011;9109;48.050;11.696;2023-04-15T16:19:07;6.93;;;3.53;;
17967;SDS011;9109;48.050;11.696;2023-04-15T16:22:09;11.27;;;4.03;;
17967;SDS011;9109;48.050;11.696;2023-04-15T16:25:11;10.17;;;3.80;;
17967;SDS011;9109;48.050;11.696;2023-04-15T16:28:13;7.50;;;3.53;;
17967;SDS011;9109;48.050;11.696;2023-04-15T16:31:16;6.23;;;3.10;;
17967;SDS011;9109;48.050;11.696;2023-04-15T16:34:18;7.50;;;3.57;;
17967;SDS011;9109;48.050;11.696;2023-04-15T16:37:20;9.17;;;3.83;;
17967;SDS011;9109;48.050;11.696;2023-04-15T16:40:22;5.83;;;3.37;;
17967;SDS011;9109;48.050;11.696;2023-04-15T16:43:24;6.07;;;3.30;;
17967;SDS011;9109;48.050;11.696;2023-04-15T16:46:27;6.63;;;3.07;;
17967;SDS011;9109;48.050;11.696;2023-04-15T16:49:29;8.67;;;3.10;;
17967;SDS011;9109;48.050;11.696;2023-04-15T16:52:34;10.23;;;3.43;;
17967;SDS011;9109;48.050;11.696;2023-04-15T16:55:38;7.00;;;3.30;;
17967;SDS011;9109;48.050;11.696;2023-04-15T16:58:40;8.67;;;3.87;;
17967;SDS011;9109;48.050;11.696;2023-04-15T17:01:45;5.87;;;3.20;;
17967;SDS011;9109;48.050;11.696;2023-04-15T17:04:47;6.17;;;2.93;;
17967;SDS011;9109;48.050;11.696;2023-04-15T17:07:49;8.00;;;2.97;;
17967;SDS011;9109;48.050;11.696;2023-04-15T17:10:51;4.67;;;2.87;;
17967;SDS011;9109;48.050;11.696;2023-04-15T17:13:54;5.67;;;3.00;;
17967;SDS011;9109;48.050;11.696;2023-04-15T17:16:57;7.73;;;2.73;;
17967;SDS011;9109;48.050;11.696;2023-04-15T17:19:59;6.90;;;2.47;;
17967;SDS011;9109;48.050;11.696;2023-04-15T17:23:01;6.73;;;2.80;;
17967;SDS011;9109;48.050;11.696;2023-04-15T17:26:04;5.43;;;3.00;;
17967;SDS011;9109;48.050;11.696;2023-04-15T17:29:06;4.97;;;3.17;;
17967;SDS011;9109;48.050;11.696;2023-04-15T17:32:09;10.53;;;3.17;;
17967;SDS011;9109;48.050;11.696;2023-04-15T17:35:11;9.13;;;3.10;;
17967;SDS011;9109;48.050;11.696;2023-04-15T17:38:13;4.60;;;2.70;;
17967;SDS011;9109;48.050;11.696;2023-04-15T17:41:17;6.60;;;2.30;;
17967;SDS011;9109;48.050;11.696;2023-04-15T17:44:19;9.47;;;2.77;;
17967;SDS011;9109;48.050;11.696;2023-04-15T17:47:23;7.90;;;2.53;;
17967;SDS011;9109;48.050;11.696;2023-04-15T17:50:24;5.73;;;2.50;;
17967;SDS011;9109;48.050;11.696;2023-04-15T17:53:26;6.40;;;2.80;;
17967;SDS011;9109;48.050;11.696;2023-04-15T17:56:28;4.63;;;2.67;;
17967;SDS011;9109;48.050;11.696;2023-04-15T17:59:30;6.93;;;2.83;;
17967;SDS011;9109;48.050;11.696;2023-04-15T18:02:34;4.67;;;2.83;;
17967;SDS011;9109;48.050;11.696;2023-04-15T18:05:36;4.17;;;2.40;;
17967;SDS011;9109;48.050;11.696;2023-04-15T18:08:38;8.20;;;2.83;;
17967;SDS011;9109;48.050;11.696;2023-04-15T18:11:40;10.83;;;2.60;;
17967;SDS011;9109;48.050;11.696;2023-04-15T18:14:44;4.23;;;2.80;;
17967;SDS011;9109;48.050;11.696;2023-04-15T18:17:47;7.70;;;3.00;;
17967;SDS011;9109;48.050;11.696;2023-04-15T18:20:49;5.03;;;3.00;;
17967;SDS011;9109;48.050;11.696;2023-04-15T18:23:51;5.57;;;2.80;;
17967;SDS011;9109;48.050;11.696;2023-04-15T18:26:53;4.03;;;2.50;;
17967;SDS011;9109;48.050;11.696;2023-04-15T18:29:55;5.07;;;3.10;;
17967;SDS011;9109;48.050;11.696;2023-04-15T18:32:58;8.20;;;3.10;;
17967;SDS011;9109;48.050;11.696;2023-04-15T18:36:00;6.27;;;3.37;;
17967;SDS011;9109;48.050;11.696;2023-04-15T18:39:02;11.13;;;3.63;;
17967;SDS011;9109;48.050;11.696;2023-04-15T18:42:05;6.53;;;3.00;;
17967;SDS011;9109;48.050;11.696;2023-04-15T18:45:07;6.47;;;3.37;;
17967;SDS011;9109;48.050;11.696;2023-04-15T18:48:11;6.00;;;3.30;;
17967;SDS011;9109;48.050;11.696;2023-04-15T18:51:15;8.20;;;3.07;;
17967;SDS011;9109;48.050;11.696;2023-04-15T18:54:16;9.17;;;3.27;;
17967;SDS011;9109;48.050;11.696;2023-04-15T18:57:18;7.27;;;3.57;;
17967;SDS011;9109;48.050;11.696;2023-04-15T19:00:20;8.77;;;3.47;;
17967;SDS011;9109;48.050;11.696;2023-04-15T19:03:23;6.03;;;3.37;;
17967;SDS011;9109;48.050;11.696;2023-04-15T19:06:26;5.10;;;3.57;;
17967;SDS011;9109;48.050;11.696;2023-04-15T19:09:28;9.63;;;3.80;;
17967;SDS011;9109;48.050;11.696;2023-04-15T19:12:30;8.40;;;3.50;;
17967;SDS011;9109;48.050;11.696;2023-04-15T19:15:32;9.33;;;3.53;;
17967;SDS011;9109;48.050;11.696;2023-04-15T19:18:35;5.87;;;3.60;;
17967;SDS011;9109;48.050;11.696;2023-04-15T19:21:37;4.67;;;3.10;;
17967;SDS011;9109;48.050;11.696;2023-04-15T19:24:39;7.03;;;3.27;;
17967;SDS011;9109;48.050;11.696;2023-04-15T19:27:42;7.10;;;3.30;;
17967;SDS011;9109;48.050;11.696;2023-04-15T19:30:44;7.57;;;3.57;;
17967;SDS011;9109;48.050;11.696;2023-04-15T19:33:47;9.10;;;3.17;;
17967;SDS011;9109;48.050;11.696;2023-04-15T19:36:49;7.77;;;3.27;;
17967;SDS011;9109;48.050;11.696;2023-04-15T19:39:52;8.20;;;3.23;;
17967;SDS011;9109;48.050;11.696;2023-04-15T19:42:54;4.40;;;2.83;;
17967;SDS011;9109;48.050;11.696;2023-04-15T19:45:56;10.33;;;3.40;;
17967;SDS011;9109;48.050;11.696;2023-04-15T19:48:59;9.87;;;3.07;;
17967;SDS011;9109;48.050;11.696;2023-04-15T19:52:01;6.73;;;3.10;;
17967;SDS011;9109;48.050;11.696;2023-04-15T19:55:04;7.57;;;3.23;;
17967;SDS011;9109;48.050;11.696;2023-04-15T19:58:06;10.30;;;3.20;;
17967;SDS011;9109;48.050;11.696;2023-04-15T20:01:08;6.33;;;3.30;;
17967;SDS011;9109;48.050;11.696;2023-04-15T20:04:14;7.37;;;3.57;;
17967;SDS011;9109;48.050;11.696;2023-04-15T20:07:15;7.73;;;3.03;;
17967;SDS011;9109;48.050;11.696;2023-04-15T20:10:18;4.77;;;2.80;;
17967;SDS011;9109;48.050;11.696;2023-04-15T20:13:20;8.43;;;3.17;;
17967;SDS011;9109;48.050;11.696;2023-04-15T20:16:22;10.57;;;3.17;;
17967;SDS011;9109;48.050;11.696;2023-04-15T20:19:25;6.93;;;3.37;;
17967;SDS011;9109;48.050;11.696;2023-04-15T20:22:27;5.67;;;3.10;;
17967;SDS011;9109;48.050;11.696;2023-04-15T20:25:29;10.40;;;3.20;;
17967;SDS011;9109;48.050;11.696;2023-04-15T20:28:31;6.87;;;2.80;;
17967;SDS011;9109;48.050;11.696;2023-04-15T20:31:33;4.97;;;2.73;;
17967;SDS011;9109;48.050;11.696;2023-04-15T20:34:36;4.33;;;2.70;;
17967;SDS011;9109;48.050;11.696;2023-04-15T20:37:41;7.27;;;2.60;;
17967;SDS011;9109;48.050;11.696;2023-04-15T20:40:44;6.50;;;3.30;;
17967;SDS011;9109;48.050;11.696;2023-04-15T20:43:46;5.63;;;3.20;;
17967;SDS011;9109;48.050;11.696;2023-04-15T20:46:48;4.83;;;2.97;;
17967;SDS011;9109;48.050;11.696;2023-04-15T20:49:51;4.53;;;3.00;;
17967;SDS011;9109;48.050;11.696;2023-04-15T20:52:53;6.37;;;3.10;;
17967;SDS011;9109;48.050;11.696;2023-04-15T20:55:55;7.60;;;3.50;;
17967;SDS011;9109;48.050;11.696;2023-04-15T20:59:16;4.53;;;3.03;;
17967;SDS011;9109;48.050;11.696;2023-04-15T21:02:17;6.40;;;3.20;;
17967;SDS011;9109;48.050;11.696;2023-04-15T21:05:21;5.37;;;3.37;;
17967;SDS011;9109;48.050;11.696;2023-04-15T21:08:23;5.30;;;3.50;;
17967;SDS011;9109;48.050;11.696;2023-04-15T21:11:28;5.37;;;3.20;;
17967;SDS011;9109;48.050;11.696;2023-04-15T21:14:32;4.43;;;2.77;;
17967;SDS011;9109;48.050;11.696;2023-04-15T21:17:37;7.13;;;2.90;;
17967;SDS011;9109;48.050;11.696;2023-04-15T21:20:41;5.23;;;3.00;;
17967;SDS011;9109;48.050;11.696;2023-04-15T21:23:43;5.63;;;3.03;;
17967;SDS011;9109;48.050;11.696;2023-04-15T21:26:45;4.87;;;2.57;;
17967;SDS011;9109;48.050;11.696;2023-04-15T21:29:47;9.47;;;3.27;;
17967;SDS011;9109;48.050;11.696;2023-04-15T21:32:51;5.83;;;2.87;;
17967;SDS011;9109;48.050;11.696;2023-04-15T21:35:56;4.00;;;2.77;;
17967;SDS011;9109;48.050;11.696;2023-04-15T21:38:58;10.00;;;3.37;;
17967;SDS011;9109;48.050;11.696;2023-04-15T21:42:01;5.47;;;3.33;;
17967;SDS011;9109;48.050;11.696;2023-04-15T21:45:05;5.87;;;2.80;;
17967;SDS011;9109;48.050;11.696;2023-04-15T21:48:07;6.50;;;3.20;;
17967;SDS011;9109;48.050;11.696;2023-04-15T21:51:11;4.70;;;2.40;;
17967;SDS011;9109;48.050;11.696;2023-04-15T21:54:13;6.97;;;2.90;;
17967;SDS011;9109;48.050;11.696;2023-04-15T21:57:15;9.50;;;3.07;;
17967;SDS011;9109;48.050;11.696;2023-04-15T22:00:17;6.07;;;2.77;;
17967;SDS011;9109;48.050;11.696;2023-04-15T22:03:20;4.13;;;2.87;;
17967;SDS011;9109;48.050;11.696;2023-04-15T22:06:23;4.00;;;2.60;;
17967;SDS011;9109;48.050;11.696;2023-04-15T22:09:26;4.20;;;2.43;;
17967;SDS011;9109;48.050;11.696;2023-04-15T22:12:28;5.23;;;2.80;;